Time;durP1;ratioP1;P1;durP2;ratioP2;P2;SDS_P1;SDS_P2;PMS_P1;PMS_P2;Temp;Humidity;BMP_temperature;BMP_pressure;BME280_temperature;BME280_humidity;BME280_pressure;Samples;Min_cycle;Max_cycle;Signal;HPM_P1;HPM_P2
2023/09/29 00:00:47;;;;;;;2.30;1.92;;;10.50;99.90;;;;;;5040113;28;20041;-34
2023/09/29 00:03:15;;;;;;;2.03;1.88;;;10.50;99.90;;;;;;5071937;28;20017;-32
2023/09/29 00:05:46;;;;;;;2.47;2.28;;;10.60;99.90;;;;;;5036937;28;20035;-33
2023/09/29 00:08:17;;;;;;;3.45;2.55;;;10.60;99.90;;;;;;5042127;28;20035;-33
2023/09/29 00:10:45;;;;;;;3.22;2.70;;;10.60;99.90;;;;;;5058625;28;20025;-32
2023/09/29 00:13:14;;;;;;;3.58;2.45;;;10.60;99.90;;;;;;5025376;28;20036;-32
2023/09/29 00:15:41;;;;;;;3.33;2.33;;;10.50;99.90;;;;;;5056126;28;20028;-32
2023/09/29 00:18:10;;;;;;;3.55;2.83;;;10.50;99.90;;;;;;5057757;28;20120;-33
2023/09/29 00:20:38;;;;;;;3.42;2.70;;;10.60;99.90;;;;;;5039722;28;20449;-33
2023/09/29 00:23:05;;;;;;;3.45;3.05;;;10.50;99.90;;;;;;5037491;28;20043;-33
2023/09/29 00:25:34;;;;;;;3.42;3.13;;;10.40;99.90;;;;;;5037562;28;20050;-32
2023/09/29 00:28:00;;;;;;;2.72;2.50;;;10.20;99.90;;;;;;5038399;28;20053;-32
2023/09/29 00:30:27;;;;;;;2.92;2.63;;;10.10;99.90;;;;;;5040424;28;20029;-36
2023/09/29 00:32:56;;;;;;;2.65;2.45;;;10.00;99.90;;;;;;5039866;28;20020;-33
2023/09/29 00:37:53;;;;;;;2.28;2.08;;;10.20;99.90;;;;;;5042536;28;20389;-33
2023/09/29 00:40:20;;;;;;;2.40;2.20;;;10.30;99.90;;;;;;5058391;28;20021;-35
2023/09/29 00:42:46;;;;;;;2.80;2.30;;;10.40;99.90;;;;;;5052601;28;20126;-33
2023/09/29 00:45:16;;;;;;;2.83;2.15;;;10.40;99.90;;;;;;5075257;28;20103;-33
2023/09/29 00:47:45;;;;;;;2.80;2.30;;;10.50;99.90;;;;;;5040399;28;20024;-39
2023/09/29 00:50:12;;;;;;;2.72;2.30;;;10.30;99.90;;;;;;5042744;28;20020;-37
2023/09/29 00:52:39;;;;;;;2.55;2.33;;;10.30;99.90;;;;;;5041681;28;20410;-40
2023/09/29 00:55:12;;;;;;;2.77;2.57;;;10.40;99.90;;;;;;5041651;28;20025;-40
2023/09/29 00:57:40;;;;;;;2.97;2.28;;;10.30;99.90;;;;;;5041491;28;20036;-40
2023/09/29 01:00:13;;;;;;;2.80;2.60;;;10.30;99.90;;;;;;5041952;28;20378;-40
2023/09/29 01:02:40;;;;;;;3.90;2.70;;;10.30;99.90;;;;;;5040647;28;20037;-33
2023/09/29 01:05:06;;;;;;;5.47;3.20;;;10.30;99.90;;;;;;5040924;28;20558;-39
2023/09/29 01:07:44;;;;;;;4.95;2.75;;;10.10;99.90;;;;;;5045695;28;20074;-40
2023/09/29 01:10:15;;;;;;;3.00;2.33;;;9.80;99.90;;;;;;5049757;28;20054;-39
2023/09/29 01:12:41;;;;;;;2.38;2.17;;;9.60;99.90;;;;;;5044949;28;20037;-40
2023/09/29 01:15:12;;;;;;;3.95;2.22;;;9.50;99.90;;;;;;5048309;28;20039;-36
2023/09/29 01:17:44;;;;;;;2.50;2.30;;;9.40;99.90;;;;;;5047759;28;20053;-31
2023/09/29 01:20:16;;;;;;;2.55;2.35;;;9.20;99.90;;;;;;5046277;28;20090;-31
2023/09/29 01:22:48;;;;;;;3.03;2.42;;;9.10;99.90;;;;;;5049633;28;20035;-30
2023/09/29 01:25:17;;;;;;;2.88;2.50;;;9.30;99.90;;;;;;5048984;28;20028;-30
2023/09/29 01:27:44;;;;;;;3.15;2.72;;;9.40;99.90;;;;;;5049655;28;20497;-30
2023/09/29 01:30:13;;;;;;;2.75;2.55;;;9.50;99.90;;;;;;5050569;28;20032;-34
2023/09/29 01:32:40;;;;;;;4.10;3.38;;;9.50;99.90;;;;;;5047888;28;20045;-31
2023/09/29 01:35:06;;;;;;;5.43;3.72;;;9.60;99.90;;;;;;5050171;28;20733;-30
2023/09/29 01:37:34;;;;;;;6.18;3.97;;;9.70;99.90;;;;;;5053408;28;20028;-31
2023/09/29 01:39:59;;;;;;;5.35;4.07;;;9.80;99.90;;;;;;5051369;28;22660;-32
2023/09/29 01:42:25;;;;;;;4.03;3.55;;;9.90;99.90;;;;;;5050655;28;20032;-31
2023/09/29 01:44:51;;;;;;;4.07;3.28;;;9.90;99.90;;;;;;5051705;28;20127;-31
2023/09/29 01:47:17;;;;;;;5.70;4.40;;;9.90;99.90;;;;;;5049701;28;20020;-33
2023/09/29 01:49:43;;;;;;;4.25;3.60;;;9.90;99.90;;;;;;5050068;28;20074;-33
2023/09/29 01:52:09;;;;;;;3.75;3.33;;;9.90;99.90;;;;;;5047753;28;20124;-32
2023/09/29 01:54:35;;;;;;;5.30;3.72;;;9.90;99.90;;;;;;5049937;28;20483;-32
2023/09/29 01:57:01;;;;;;;5.35;3.65;;;9.70;99.90;;;;;;5051938;28;20116;-31
2023/09/29 01:59:28;;;;;;;3.83;3.38;;;9.60;99.90;;;;;;5050275;28;20127;-36
2023/09/29 02:01:54;;;;;;;3.92;3.53;;;9.60;99.90;;;;;;5048819;28;20036;-31
2023/09/29 02:04:19;;;;;;;4.57;3.33;;;9.70;99.90;;;;;;5048678;28;20033;-31
2023/09/29 02:06:45;;;;;;;4.55;3.42;;;9.70;99.90;;;;;;5050330;28;20024;-40
2023/09/29 02:09:10;;;;;;;4.28;3.28;;;9.80;99.90;;;;;;5046599;28;20069;-37
2023/09/29 02:11:41;;;;;;;4.20;3.55;;;9.90;99.90;;;;;;5047881;28;22132;-40
2023/09/29 02:14:06;;;;;;;4.68;3.70;;;9.90;99.90;;;;;;5049229;28;20044;-40
2023/09/29 02:16:33;;;;;;;6.28;3.90;;;9.90;99.90;;;;;;5046100;28;20576;-39
2023/09/29 02:19:00;;;;;;;4.93;3.53;;;10.00;99.90;;;;;;5042836;28;20107;-40
2023/09/29 02:21:28;;;;;;;5.53;3.78;;;10.00;99.90;;;;;;5043120;28;20029;-40
2023/09/29 02:23:55;;;;;;;4.43;3.97;;;9.90;99.90;;;;;;5045290;28;20021;-41
2023/09/29 02:26:22;;;;;;;4.55;3.67;;;9.90;99.90;;;;;;5043431;28;20033;-41
2023/09/29 02:28:49;;;;;;;4.78;3.47;;;9.90;99.90;;;;;;5044821;28;20466;-41
2023/09/29 02:31:15;;;;;;;5.03;3.28;;;9.90;99.90;;;;;;5043290;28;20044;-40
2023/09/29 02:33:41;;;;;;;4.20;3.63;;;9.90;99.90;;;;;;5043656;28;20070;-42
2023/09/29 02:36:07;;;;;;;5.15;3.67;;;9.80;99.90;;;;;;5046190;28;20041;-38
2023/09/29 02:38:33;;;;;;;4.20;3.80;;;9.80;99.90;;;;;;5044364;28;20029;-38
2023/09/29 02:40:59;;;;;;;3.95;3.15;;;9.80;99.90;;;;;;5046149;28;20065;-39
2023/09/29 02:43:30;;;;;;;4.25;3.40;;;9.80;99.90;;;;;;5042023;28;20029;-39
2023/09/29 02:45:56;;;;;;;3.45;3.13;;;9.70;99.90;;;;;;5045148;28;20037;-40
2023/09/29 02:48:22;;;;;;;5.18;3.40;;;9.60;99.90;;;;;;5043644;28;20124;-38
2023/09/29 02:50:47;;;;;;;3.67;3.38;;;9.60;99.90;;;;;;5045331;28;20140;-40
2023/09/29 02:53:14;;;;;;;3.67;3.13;;;9.60;99.90;;;;;;5043493;28;20036;-41
2023/09/29 02:55:40;;;;;;;4.47;3.40;;;9.60;99.90;;;;;;5059543;28;20124;-41
2023/09/29 02:58:06;;;;;;;3.95;3.20;;;9.50;99.90;;;;;;5042576;28;20151;-41
2023/09/29 03:00:32;;;;;;;3.67;3.25;;;9.40;99.90;;;;;;5043323;28;20032;-38
2023/09/29 03:02:58;;;;;;;5.80;3.70;;;9.50;99.90;;;;;;5043484;28;20104;-41
2023/09/29 03:05:25;;;;;;;4.03;3.55;;;9.50;99.90;;;;;;5040565;28;20111;-39
2023/09/29 03:07:51;;;;;;;3.15;2.72;;;9.40;99.90;;;;;;5037094;28;20037;-42
2023/09/29 03:10:17;;;;;;;3.25;3.03;;;9.20;99.90;;;;;;5044185;28;20029;-37
2023/09/29 03:12:46;;;;;;;3.67;3.38;;;9.10;99.90;;;;;;5043198;28;20037;-39
2023/09/29 03:15:16;;;;;;;3.05;2.83;;;9.10;99.90;;;;;;5046484;28;20028;-38
2023/09/29 03:17:43;;;;;;;3.58;2.40;;;8.90;99.90;;;;;;5043598;28;20029;-40
2023/09/29 03:20:10;;;;;;;4.75;2.95;;;9.00;99.90;;;;;;5044541;28;20083;-38
2023/09/29 03:22:36;;;;;;;3.20;2.90;;;9.10;99.90;;;;;;5044065;28;20700;-39
2023/09/29 03:25:02;;;;;;;6.25;3.33;;;9.10;99.90;;;;;;5045139;28;20037;-39
2023/09/29 03:27:28;;;;;;;4.47;3.75;;;9.20;99.90;;;;;;5043041;28;20083;-39
2023/09/29 03:29:53;;;;;;;4.25;3.70;;;9.10;99.90;;;;;;5043231;28;20028;-40
2023/09/29 03:32:19;;;;;;;4.45;3.75;;;9.20;99.90;;;;;;5040969;28;20437;-40
2023/09/29 03:34:45;;;;;;;2.95;2.63;;;9.20;99.90;;;;;;5044799;28;20029;-36
2023/09/29 03:37:10;;;;;;;3.40;3.10;;;9.20;99.90;;;;;;5043834;28;20025;-37
2023/09/29 03:39:37;;;;;;;3.55;2.90;;;9.10;99.90;;;;;;5043484;28;20035;-36
2023/09/29 03:42:03;;;;;;;3.40;2.70;;;9.10;99.90;;;;;;5041885;28;20124;-33
2023/09/29 03:44:29;;;;;;;4.97;3.33;;;9.00;99.90;;;;;;5044218;28;20510;-33
2023/09/29 03:46:55;;;;;;;3.60;3.10;;;8.80;99.90;;;;;;5074261;28;20039;-32
2023/09/29 03:49:20;;;;;;;4.80;2.80;;;8.80;99.90;;;;;;5043728;28;20025;-32
2023/09/29 03:51:51;;;;;;;4.88;4.05;;;8.70;99.90;;;;;;5043159;28;20783;-38
2023/09/29 03:54:18;;;;;;;4.45;3.95;;;8.70;99.90;;;;;;5042510;28;20442;-35
2023/09/29 03:56:44;;;;;;;3.47;3.15;;;8.50;99.90;;;;;;5043297;28;20049;-32
2023/09/29 03:59:10;;;;;;;3.83;3.42;;;8.40;99.90;;;;;;5044053;28;20142;-34
2023/09/29 04:01:36;;;;;;;4.13;2.90;;;8.40;99.90;;;;;;5042209;28;20041;-35
2023/09/29 04:04:02;;;;;;;3.83;2.67;;;8.30;99.90;;;;;;5040120;28;20028;-32
2023/09/29 04:06:32;;;;;;;2.53;2.33;;;8.30;99.90;;;;;;5040495;28;20033;-34
2023/09/29 04:09:06;;;;;;;2.90;2.58;;;8.40;99.90;;;;;;5075459;28;20108;-33
2023/09/29 04:11:32;;;;;;;3.53;2.40;;;8.40;99.90;;;;;;5039571;28;20802;-34
2023/09/29 04:13:58;;;;;;;2.90;2.70;;;8.50;99.90;;;;;;5040400;28;20060;-32
2023/09/29 04:16:24;;;;;;;2.88;2.60;;;8.50;99.90;;;;;;5043609;28;20513;-35
2023/09/29 04:18:53;;;;;;;3.28;2.85;;;8.50;99.90;;;;;;5043061;28;20025;-33
2023/09/29 04:21:22;;;;;;;4.00;3.30;;;8.50;99.90;;;;;;5040896;28;20037;-34
2023/09/29 04:23:49;;;;;;;4.22;3.35;;;8.50;99.90;;;;;;5041645;28;20024;-32
2023/09/29 04:26:16;;;;;;;3.83;3.10;;;8.50;99.90;;;;;;5057376;28;20017;-41
2023/09/29 04:28:41;;;;;;;6.97;3.67;;;8.60;99.90;;;;;;5041597;28;20071;-41
2023/09/29 04:31:07;;;;;;;3.28;2.97;;;8.60;99.90;;;;;;5044112;28;20045;-41
2023/09/29 04:33:33;;;;;;;5.15;3.35;;;8.70;99.90;;;;;;5042163;28;20651;-41
2023/09/29 04:35:58;;;;;;;4.00;3.40;;;8.70;99.90;;;;;;5042900;28;20047;-36
2023/09/29 04:38:24;;;;;;;4.95;3.40;;;8.80;99.90;;;;;;5056165;28;20457;-40
2023/09/29 04:40:50;;;;;;;5.38;3.47;;;8.80;99.90;;;;;;5056379;28;20021;-35
2023/09/29 04:43:15;;;;;;;4.93;3.47;;;8.80;99.90;;;;;;5042339;28;20485;-42
2023/09/29 04:45:41;;;;;;;3.50;3.00;;;8.80;99.90;;;;;;5042951;28;20131;-40
2023/09/29 04:48:07;;;;;;;6.68;2.97;;;8.60;99.90;;;;;;5042734;28;20029;-41
2023/09/29 04:50:34;;;;;;;3.40;3.10;;;8.20;99.90;;;;;;5038635;28;20082;-36
2023/09/29 04:52:59;;;;;;;3.88;3.17;;;8.00;99.90;;;;;;5042032;28;20060;-41
2023/09/29 04:55:28;;;;;;;3.40;2.80;;;8.20;99.90;;;;;;5041788;28;20076;-41
2023/09/29 04:57:54;;;;;;;;;;;8.30;99.90;;;;;;5041573;28;20041;-34
2023/09/29 05:00:21;;;;;;;5.05;3.20;;;8.30;99.90;;;;;;5042517;28;20404;-34
2023/09/29 05:02:47;;;;;;;4.88;3.38;;;8.30;99.90;;;;;;5039248;28;20029;-34
2023/09/29 05:05:16;;;;;;;3.83;3.17;;;8.30;99.90;;;;;;5042716;28;20036;-34
2023/09/29 05:07:47;;;;;;;3.97;3.35;;;8.30;99.90;;;;;;5059268;28;20391;-32
2023/09/29 05:10:16;;;;;;;3.60;3.28;;;8.00;99.90;;;;;;5044688;28;20022;-31
2023/09/29 05:12:43;;;;;;;4.35;3.42;;;7.90;99.90;;;;;;5039834;28;20044;-32
2023/09/29 05:15:10;;;;;;;4.28;3.10;;;7.90;99.90;;;;;;5061927;28;20051;-34
2023/09/29 05:17:35;;;;;;;6.13;3.15;;;7.90;99.90;;;;;;5042103;28;20104;-31
2023/09/29 05:20:01;;;;;;;4.90;2.85;;;8.00;99.90;;;;;;5037206;28;20033;-33
2023/09/29 05:22:27;;;;;;;3.38;3.08;;;8.10;99.90;;;;;;5042842;28;20037;-32
2023/09/29 05:24:55;;;;;;;4.93;3.20;;;8.20;99.90;;;;;;5042975;28;20037;-33
2023/09/29 05:27:20;;;;;;;3.53;2.90;;;8.10;99.90;;;;;;5040983;28;20040;-33
2023/09/29 05:29:46;;;;;;;3.05;2.85;;;8.10;99.90;;;;;;5043000;28;20033;-35
2023/09/29 05:32:12;;;;;;;3.25;2.78;;;8.20;99.90;;;;;;5042248;28;20124;-33
2023/09/29 05:34:37;;;;;;;5.82;3.47;;;8.20;99.90;;;;;;5043693;28;20438;-33
2023/09/29 05:37:04;;;;;;;4.68;3.20;;;8.30;99.90;;;;;;5043412;28;20057;-32
2023/09/29 05:39:30;;;;;;;3.25;2.70;;;8.30;99.90;;;;;;5045205;28;20376;-31
2023/09/29 05:41:56;;;;;;;3.72;2.63;;;8.30;99.90;;;;;;5043118;28;20116;-30
2023/09/29 05:44:22;;;;;;;3.63;2.85;;;8.30;99.90;;;;;;5044792;28;20124;-31
2023/09/29 05:46:51;;;;;;;3.30;3.00;;;8.30;99.90;;;;;;5043643;28;20029;-33
2023/09/29 05:49:18;;;;;;;3.90;3.15;;;8.30;99.90;;;;;;5042817;28;20632;-32
2023/09/29 05:51:44;;;;;;;3.83;2.80;;;8.40;99.90;;;;;;5041233;28;20025;-33
2023/09/29 05:54:11;;;;;;;3.15;2.50;;;8.40;99.90;;;;;;5045628;28;20044;-34
2023/09/29 05:56:40;;;;;;;4.97;3.20;;;8.40;99.90;;;;;;5048173;28;20029;-33
2023/09/29 05:59:07;;;;;;;4.22;3.42;;;8.40;99.90;;;;;;5047742;28;20037;-36
2023/09/29 06:01:33;;;;;;;4.15;3.10;;;8.40;99.90;;;;;;5060163;28;20445;-33
2023/09/29 06:03:59;;;;;;;3.65;3.33;;;8.40;99.90;;;;;;5044498;28;20031;-34
2023/09/29 06:06:27;;;;;;;4.30;3.38;;;8.50;99.90;;;;;;5064393;28;20029;-36
2023/09/29 06:08:57;;;;;;;4.57;3.28;;;8.50;99.90;;;;;;5049100;28;20021;-33
2023/09/29 06:11:26;;;;;;;4.22;3.38;;;8.50;99.90;;;;;;5050961;28;20033;-34
2023/09/29 06:14:20;;;;;;;4.35;3.20;;;8.60;99.90;;;;;;5052946;28;20078;-33
2023/09/29 06:16:57;;;;;;;4.60;3.50;;;8.60;99.90;;;;;;5049268;28;20497;-33
2023/09/29 06:19:24;;;;;;;8.70;4.00;;;8.70;99.90;;;;;;5050139;28;20041;-34
2023/09/29 06:21:59;;;;;;;5.13;3.88;;;8.80;99.90;;;;;;5060380;28;20036;-35
2023/09/29 06:24:26;;;;;;;3.97;3.53;;;8.80;99.90;;;;;;5047498;28;20036;-33
2023/09/29 06:26:52;;;;;;;4.85;3.50;;;8.90;99.90;;;;;;5044243;28;20086;-38
2023/09/29 06:29:17;;;;;;;5.18;3.83;;;9.00;99.90;;;;;;5049662;28;20033;-34
2023/09/29 06:31:43;;;;;;;4.03;3.47;;;9.00;99.90;;;;;;5047679;28;20029;-39
2023/09/29 06:34:08;;;;;;;3.92;3.35;;;9.10;99.90;;;;;;5029978;28;20726;-40
2023/09/29 06:36:34;;;;;;;5.05;3.67;;;9.20;99.90;;;;;;5046065;28;20071;-34
2023/09/29 06:39:00;;;;;;;7.40;4.38;;;9.30;99.90;;;;;;5030165;28;20047;-40
2023/09/29 06:41:26;;;;;;;5.45;3.95;;;9.40;99.90;;;;;;5034248;28;20025;-39
2023/09/29 06:43:53;;;;;;;6.22;4.28;;;9.50;99.90;;;;;;5041453;28;20579;-39
2023/09/29 06:46:18;;;;;;;5.82;4.07;;;9.60;99.90;;;;;;5050033;28;20132;-39
2023/09/29 06:48:44;;;;;;;6.85;4.18;;;9.70;99.90;;;;;;5044807;28;20108;-37
2023/09/29 06:51:10;;;;;;;4.45;4.03;;;9.80;99.90;;;;;;5061220;28;20071;-38
2023/09/29 06:53:36;;;;;;;9.68;3.83;;;9.90;99.90;;;;;;5046079;28;20383;-40
2023/09/29 06:56:02;;;;;;;7.57;4.53;;;10.00;99.90;;;;;;5048308;28;20128;-39
2023/09/29 06:58:28;;;;;;;5.35;4.25;;;10.10;99.90;;;;;;5044946;28;20449;-41
2023/09/29 07:00:56;;;;;;;8.70;3.72;;;10.20;99.90;;;;;;5046337;28;20041;-36
2023/09/29 07:03:23;;;;;;;7.30;4.90;;;10.40;99.90;;;;;;5044925;28;20044;-41
2023/09/29 07:05:49;;;;;;;7.68;4.70;;;10.50;99.90;;;;;;5045175;28;20099;-41
2023/09/29 07:08:15;;;;;;;6.45;4.38;;;10.60;99.90;;;;;;5038502;28;20078;-41
2023/09/29 07:10:42;;;;;;;11.15;4.60;;;10.80;99.90;;;;;;5045177;28;20033;-41
2023/09/29 07:13:08;;;;;;;7.60;4.68;;;10.90;99.90;;;;;;5042990;28;20033;-35
2023/09/29 07:15:34;;;;;;;6.38;4.65;;;11.00;99.90;;;;;;5046094;28;20629;-35
2023/09/29 07:17:59;;;;;;;7.78;4.75;;;11.20;99.90;;;;;;5043745;28;20128;-41
2023/09/29 07:20:25;;;;;;;10.30;5.32;;;11.40;99.90;;;;;;5046588;28;20474;-41
2023/09/29 07:22:51;;;;;;;8.45;4.70;;;11.50;99.90;;;;;;5040186;28;20026;-40
2023/09/29 07:25:18;;;;;;;11.95;4.60;;;11.70;99.90;;;;;;5047739;28;20494;-40
2023/09/29 07:27:44;;;;;;;13.35;5.00;;;11.70;99.90;;;;;;5044143;28;20045;-39
2023/09/29 07:30:10;;;;;;;8.40;4.40;;;11.80;99.90;;;;;;5047943;28;20039;-39
2023/09/29 07:32:41;;;;;;;7.00;3.95;;;12.00;99.90;;;;;;5074656;28;20036;-42
2023/09/29 07:35:07;;;;;;;9.93;4.57;;;12.00;99.90;;;;;;5057921;28;20398;-35
2023/09/29 07:37:33;;;;;;;6.68;4.70;;;12.20;99.90;;;;;;5045936;28;20029;-36
2023/09/29 07:39:59;;;;;;;6.43;4.80;;;12.30;99.90;;;;;;5042838;28;20096;-41
2023/09/29 07:42:25;;;;;;;6.00;4.20;;;12.40;99.90;;;;;;5046324;28;20033;-34
2023/09/29 07:44:50;;;;;;;7.28;4.80;;;12.60;99.90;;;;;;5041483;28;20045;-35
2023/09/29 07:47:16;;;;;;;7.72;4.43;;;12.70;99.90;;;;;;5046966;28;20029;-41
2023/09/29 07:49:42;;;;;;;6.68;4.15;;;12.90;99.90;;;;;;5048459;28;20082;-38
2023/09/29 07:52:08;;;;;;;8.30;4.70;;;13.10;99.90;;;;;;5045797;28;20406;-41
2023/09/29 07:54:36;;;;;;;6.28;4.32;;;13.20;99.90;;;;;;5040834;28;20029;-36
2023/09/29 07:57:02;;;;;;;4.90;3.95;;;13.40;99.90;;;;;;5042823;28;20737;-35
2023/09/29 07:59:27;;;;;;;7.28;3.90;;;13.60;99.90;;;;;;5040068;28;20061;-41
2023/09/29 08:01:54;;;;;;;6.63;4.00;;;13.80;99.90;;;;;;5039478;28;20029;-40
2023/09/29 08:04:19;;;;;;;8.43;3.63;;;14.00;99.90;;;;;;5054716;28;20566;-38
2023/09/29 08:06:45;;;;;;;5.70;4.15;;;14.10;99.90;;;;;;5042531;28;20174;-40
2023/09/29 08:09:12;;;;;;;5.32;4.30;;;14.40;99.90;;;;;;5056079;28;20033;-40
2023/09/29 08:11:40;;;;;;;6.10;4.15;;;14.60;99.90;;;;;;5035160;28;20036;-40
2023/09/29 08:14:06;;;;;;;6.57;3.53;;;14.70;99.90;;;;;;5042570;28;20183;-40
2023/09/29 08:16:32;;;;;;;5.97;3.67;;;14.90;99.90;;;;;;5046490;28;20111;-34
2023/09/29 08:18:58;;;;;;;6.90;3.65;;;15.20;99.90;;;;;;5043936;28;20091;-32
2023/09/29 08:21:23;;;;;;;6.53;4.43;;;15.40;99.90;;;;;;5046879;28;20421;-31
2023/09/29 08:23:49;;;;;;;5.78;3.80;;;15.60;99.90;;;;;;5047918;28;20025;-32
2023/09/29 08:26:15;;;;;;;6.50;3.83;;;15.80;99.90;;;;;;5050432;28;20454;-30
2023/09/29 08:28:41;;;;;;;5.00;3.10;;;15.90;99.90;;;;;;5045552;28;20490;-32
2023/09/29 08:31:17;;;;;;;5.10;3.22;;;16.10;99.90;;;;;;5063671;28;20032;-32
2023/09/29 08:33:43;;;;;;;5.78;3.45;;;16.20;99.90;;;;;;5042363;28;20037;-30
2023/09/29 08:36:09;;;;;;;5.38;3.30;;;16.40;99.90;;;;;;5044400;28;20162;-31
2023/09/29 08:38:35;;;;;;;4.20;2.85;;;16.70;99.90;;;;;;5037310;28;20104;-33
2023/09/29 08:41:05;;;;;;;4.47;3.13;;;17.00;99.90;;;;;;5045964;28;20066;-33
2023/09/29 08:43:33;;;;;;;5.30;3.53;;;17.10;99.90;;;;;;5046608;28;20025;-31
2023/09/29 08:45:59;;;;;;;5.80;3.25;;;17.30;99.90;;;;;;5049794;28;20502;-39
2023/09/29 08:48:32;;;;;;;5.35;3.05;;;17.50;99.90;;;;;;5045797;28;20032;-41
2023/09/29 08:51:01;;;;;;;5.10;3.05;;;17.60;99.90;;;;;;5043565;28;20057;-38
2023/09/29 08:53:31;;;;;;;6.18;3.30;;;17.90;99.90;;;;;;5043770;28;20107;-36
2023/09/29 08:55:57;;;;;;;6.57;2.97;;;18.10;99.90;;;;;;5045192;28;20032;-37
2023/09/29 08:58:23;;;;;;;5.53;3.13;;;18.30;99.90;;;;;;5040034;28;20430;-39
2023/09/29 09:00:50;;;;;;;10.80;3.05;;;18.50;99.90;;;;;;5042974;28;20060;-40
2023/09/29 09:03:17;;;;;;;4.30;2.45;;;18.60;99.90;;;;;;5040337;28;20356;-32
2023/09/29 09:05:43;;;;;;;5.50;3.42;;;18.90;99.90;;;;;;5046052;28;20653;-39
2023/09/29 09:08:11;;;;;;;5.78;3.45;;;19.00;99.90;;;;;;5045275;28;20035;-37
2023/09/29 09:10:37;;;;;;;;;;;19.40;99.90;;;;;;5048436;28;20029;-37
2023/09/29 09:13:05;;;;;;;6.30;3.08;;;19.60;99.90;;;;;;5043644;28;20059;-40
2023/09/29 09:15:31;;;;;;;4.20;2.88;;;19.90;99.90;;;;;;5043665;28;20619;-41
2023/09/29 09:17:57;;;;;;;6.75;2.80;;;20.00;99.90;;;;;;5046027;28;20128;-39
2023/09/29 09:20:23;;;;;;;3.45;3.03;;;20.10;99.90;;;;;;5046228;28;20075;-41
2023/09/29 09:23:03;;;;;;;4.22;2.72;;;20.00;99.90;;;;;;5045373;28;21010;-39
2023/09/29 09:25:35;;;;;;;5.22;3.13;;;19.80;99.90;;;;;;5041422;28;20435;-41
2023/09/29 09:28:04;;;;;;;5.85;3.20;;;19.70;99.90;;;;;;5040797;28;20041;-38
2023/09/29 09:30:35;;;;;;;3.78;2.92;;;19.70;99.90;;;;;;5057213;28;20502;-37
2023/09/29 09:33:03;;;;;;;3.58;2.42;;;19.70;99.90;;;;;;5048208;28;20029;-39
2023/09/29 09:35:29;;;;;;;6.30;2.83;;;19.80;99.90;;;;;;5061246;28;20066;-37
2023/09/29 09:37:56;;;;;;;5.03;3.13;;;20.30;99.90;;;;;;5063010;28;20201;-38
2023/09/29 09:40:26;;;;;;;3.83;2.72;;;20.60;99.90;;;;;;5048636;28;20037;-39
2023/09/29 09:42:53;;;;;;;3.55;3.08;;;20.80;99.90;;;;;;5045179;28;20125;-39
2023/09/29 09:45:24;;;;;;;3.97;2.65;;;20.90;99.90;;;;;;5045196;28;20049;-36
2023/09/29 09:47:57;;;;;;;5.00;2.78;;;20.90;99.90;;;;;;5077814;28;20025;-40
2023/09/29 09:50:28;;;;;;;5.00;2.90;;;20.70;99.90;;;;;;5049485;28;20032;-39
2023/09/29 09:52:54;;;;;;;3.28;2.63;;;20.60;99.90;;;;;;5046071;28;20024;-39
2023/09/29 09:55:33;;;;;;;3.60;2.90;;;20.70;99.90;;;;;;5044447;28;20041;-39
2023/09/29 09:58:01;;;;;;;3.08;2.50;;;20.80;99.90;;;;;;5077239;28;20470;-39
2023/09/29 10:00:27;;;;;;;6.50;2.97;;;21.00;99.90;;;;;;5055492;28;20075;-34
2023/09/29 10:02:57;;;;;;;4.43;3.10;;;21.10;99.90;;;;;;5045028;28;20025;-39
2023/09/29 10:05:24;;;;;;;4.20;2.72;;;21.00;99.90;;;;;;5047212;28;20051;-38
2023/09/29 10:08:05;;;;;;;3.58;2.30;;;20.90;99.90;;;;;;5040298;28;20099;-40
2023/09/29 10:10:37;;;;;;;6.47;3.05;;;21.00;99.90;;;;;;5061651;28;20478;-39
2023/09/29 10:13:11;;;;;;;4.70;2.83;;;21.30;99.90;;;;;;5043224;28;22347;-36
2023/09/29 10:15:38;;;;;;;4.28;3.05;;;21.30;99.90;;;;;;5041121;28;20037;-37
2023/09/29 10:18:15;;;;;;;4.82;3.00;;;21.20;99.90;;;;;;5046225;28;20496;-40
2023/09/29 10:20:40;;;;;;;3.38;2.78;;;21.10;99.90;;;;;;5044249;28;20033;-40
2023/09/29 10:23:13;;;;;;;4.30;2.90;;;21.00;99.90;;;;;;5048335;28;20048;-39
2023/09/29 10:25:42;;;;;;;4.00;2.70;;;21.00;99.90;;;;;;5045045;28;20368;-38
2023/09/29 10:28:08;;;;;;;5.30;2.70;;;21.20;99.90;;;;;;5046935;28;20033;-40
2023/09/29 10:30:35;;;;;;;4.13;2.70;;;21.40;99.90;;;;;;5048354;28;20044;-36
2023/09/29 10:33:13;;;;;;;4.07;2.50;;;21.60;99.90;;;;;;5043498;28;20025;-37
2023/09/29 10:35:44;;;;;;;;;;;21.80;99.90;;;;;;5044728;28;20060;-32
2023/09/29 10:38:22;;;;;;;4.18;2.50;;;22.00;99.90;;;;;;5039387;28;19916;-37
2023/09/29 10:40:48;;;;;;;5.82;2.90;;;22.10;99.90;;;;;;5045491;28;20021;-40
2023/09/29 10:43:17;;;;;;;3.28;2.38;;;22.30;99.90;;;;;;5045101;28;20146;-40
2023/09/29 10:45:44;;;;;;;4.13;2.60;;;22.40;99.90;;;;;;5060393;28;20072;-37
2023/09/29 10:48:11;;;;;;;4.80;2.70;;;22.40;99.90;;;;;;5043507;28;20028;-40
2023/09/29 10:50:46;;;;;;;3.83;2.88;;;22.50;99.90;;;;;;5048302;28;20368;-36
2023/09/29 10:53:12;;;;;;;4.40;2.50;;;22.50;99.90;;;;;;5042683;28;20025;-33
2023/09/29 10:55:49;;;;;;;4.13;2.90;;;22.60;99.90;;;;;;5043956;28;20143;-39
2023/09/29 10:58:17;;;;;;;3.80;2.92;;;22.80;99.90;;;;;;5045500;28;20445;-40
2023/09/29 11:00:48;;;;;;;5.57;3.17;;;22.90;99.90;;;;;;5046687;28;20122;-36
2023/09/29 11:03:16;;;;;;;4.18;2.83;;;22.90;99.90;;;;;;5045299;28;20140;-39
2023/09/29 11:05:57;;;;;;;3.78;2.53;;;23.10;99.90;;;;;;5077070;28;20032;-35
2023/09/29 11:08:31;;;;;;;3.03;2.63;;;23.10;99.90;;;;;;5043700;28;20115;-41
2023/09/29 11:11:02;;;;;;;4.90;2.92;;;23.20;99.90;;;;;;5048439;28;20060;-39
2023/09/29 11:13:29;;;;;;;4.80;2.80;;;23.30;99.90;;;;;;5060480;28;20078;-36
2023/09/29 11:15:58;;;;;;;5.30;2.50;;;23.50;99.90;;;;;;5064555;28;20021;-42
2023/09/29 11:18:31;;;;;;;3.45;2.70;;;23.50;99.90;;;;;;5048273;28;20079;-36
2023/09/29 11:20:58;;;;;;;3.92;2.42;;;23.60;99.90;;;;;;5059241;28;20483;-38
2023/09/29 11:23:24;;;;;;;3.35;2.45;;;23.50;99.90;;;;;;5039287;28;20035;-39
2023/09/29 11:25:54;;;;;;;3.72;2.63;;;23.40;99.90;;;;;;5041977;28;20026;-41
2023/09/29 11:28:20;;;;;;;3.97;2.75;;;23.50;99.90;;;;;;5042344;28;20037;-35
2023/09/29 11:30:46;;;;;;;3.70;2.53;;;23.70;99.90;;;;;;5041760;28;20036;-39
2023/09/29 11:33:14;;;;;;;3.42;2.42;;;23.80;99.90;;;;;;5040639;28;20068;-38
2023/09/29 11:35:44;;;;;;;4.07;2.50;;;24.10;99.90;;;;;;5043708;28;20044;-40
2023/09/29 11:38:15;;;;;;;2.97;2.30;;;24.10;99.90;;;;;;5044716;28;20037;-39
2023/09/29 11:40:41;;;;;;;4.18;2.95;;;24.10;99.90;;;;;;5038496;28;20075;-41
2023/09/29 11:43:07;;;;;;;4.22;2.47;;;24.10;99.90;;;;;;5041801;28;20045;-38
2023/09/29 11:45:33;;;;;;;3.85;3.08;;;24.20;99.90;;;;;;5042207;28;20506;-35
2023/09/29 11:47:58;;;;;;;3.05;2.50;;;24.20;99.90;;;;;;5054480;28;20032;-32
2023/09/29 11:50:25;;;;;;;3.58;2.50;;;24.10;99.90;;;;;;5044634;28;20025;-34
2023/09/29 11:52:51;;;;;;;4.50;2.58;;;24.00;99.90;;;;;;5044659;28;20044;-33
2023/09/29 11:55:16;;;;;;;3.38;2.40;;;24.10;99.90;;;;;;5050144;28;21062;-33
2023/09/29 11:57:42;;;;;;;2.92;2.20;;;24.20;99.90;;;;;;5039955;28;20071;-34
2023/09/29 12:00:13;;;;;;;5.05;2.70;;;24.20;99.90;;;;;;5046137;28;20037;-32
2023/09/29 12:02:39;;;;;;;3.88;2.38;;;24.20;99.90;;;;;;5050261;28;20096;-32
2023/09/29 12:05:06;;;;;;;2.97;2.22;;;24.50;99.90;;;;;;5045853;28;20043;-32
2023/09/29 12:07:33;;;;;;;3.13;2.47;;;24.60;99.90;;;;;;5043784;28;20031;-33
2023/09/29 12:09:59;;;;;;;4.40;2.57;;;24.70;99.90;;;;;;5045072;28;20033;-32
2023/09/29 12:12:26;;;;;;;4.72;2.65;;;24.60;99.90;;;;;;5040268;28;20129;-32
2023/09/29 12:14:52;;;;;;;3.45;2.45;;;24.50;99.90;;;;;;5048709;28;20032;-32
2023/09/29 12:17:18;;;;;;;3.42;2.60;;;24.50;99.90;;;;;;5041613;28;20067;-35
2023/09/29 12:19:44;;;;;;;3.25;2.60;;;24.40;99.90;;;;;;5046877;28;20035;-39
2023/09/29 12:22:10;;;;;;;3.90;2.30;;;24.40;99.90;;;;;;5045023;28;20029;-39
2023/09/29 12:24:35;;;;;;;6.15;2.47;;;24.50;99.90;;;;;;5041879;28;20113;-38
2023/09/29 12:27:01;;;;;;;4.53;2.92;;;24.70;99.90;;;;;;5042859;28;20049;-39
2023/09/29 12:29:29;;;;;;;5.00;2.30;;;24.70;99.90;;;;;;5047412;28;20025;-36
2023/09/29 12:31:54;;;;;;;;;;;24.80;99.90;;;;;;5037634;28;20038;-38
2023/09/29 12:34:20;;;;;;;3.78;2.40;;;24.70;99.90;;;;;;5046031;28;20392;-37
2023/09/29 12:36:46;;;;;;;3.17;2.50;;;24.80;99.90;;;;;;5056878;28;20561;-38
2023/09/29 12:39:12;;;;;;;3.38;2.45;;;25.00;99.90;;;;;;5060548;28;20111;-39
2023/09/29 12:41:40;;;;;;;4.30;2.28;;;24.90;99.90;;;;;;5043323;28;20490;-37
2023/09/29 12:44:05;;;;;;;2.85;2.38;;;25.00;99.90;;;;;;5041466;28;20880;-40
2023/09/29 12:46:32;;;;;;;3.42;2.20;;;25.10;99.90;;;;;;5040618;28;20162;-40
2023/09/29 12:48:58;;;;;;;4.35;2.35;;;25.10;99.90;;;;;;5046633;28;20021;-37
2023/09/29 12:51:24;;;;;;;6.78;2.30;;;25.10;99.90;;;;;;5048125;28;20622;-39
2023/09/29 12:53:50;;;;;;;5.00;2.60;;;25.10;99.90;;;;;;5042899;28;20096;-40
2023/09/29 12:56:16;;;;;;;2.75;2.05;;;25.00;99.90;;;;;;5044499;28;20512;-31